createdAt,value
2022-11-06T08:31:30.941Z,18.60
2022-11-06T08:36:49.532Z,20.88
2022-11-06T08:41:53.370Z,20.70
2022-11-06T08:46:58.222Z,17.65
2022-11-06T08:52:01.691Z,20.13
2022-11-06T08:57:07.286Z,17.27
2022-11-06T09:02:41.268Z,18.02
2022-11-06T09:07:46.789Z,21.60
2022-11-06T09:12:50.408Z,20.92
2022-11-06T09:17:54.063Z,16.92
2022-11-06T09:23:03.400Z,17.42
2022-11-06T09:28:07.213Z,17.38
2022-11-06T09:33:20.533Z,13.90
2022-11-06T09:38:26.372Z,19.23
2022-11-06T09:49:17.723Z,16.52
2022-11-06T09:54:27.641Z,19.55
2022-11-06T09:59:37.316Z,13.00
2022-11-06T10:04:49.939Z,12.82
2022-11-06T10:10:47.156Z,14.82
2022-11-06T10:15:57.894Z,17.75
2022-11-06T10:26:46.630Z,16.10
2022-11-06T10:44:24.921Z,13.83
2022-11-06T10:49:38.941Z,14.93
2022-11-06T10:55:04.390Z,14.13
2022-11-06T11:00:13.625Z,18.48
2022-11-06T11:05:20.114Z,16.05
2022-11-06T11:10:30.075Z,15.30
2022-11-06T11:16:03.990Z,13.63
2022-11-06T11:21:23.189Z,11.43
2022-11-06T11:26:30.857Z,9.40
2022-11-06T11:37:28.965Z,15.02
2022-11-06T11:48:28.433Z,17.85
2022-11-06T11:53:35.994Z,14.05
2022-11-06T11:58:55.013Z,14.32
2022-11-06T12:04:14.177Z,14.02
2022-11-06T12:09:17.934Z,9.77
2022-11-06T12:14:43.037Z,12.00
2022-11-06T12:20:20.438Z,10.73
2022-11-06T12:25:30.538Z,11.07
2022-11-06T12:30:39.321Z,14.70
2022-11-06T12:35:50.240Z,12.50
2022-11-06T12:40:59.833Z,10.25
2022-11-06T12:46:25.648Z,10.75
2022-11-06T12:51:42.780Z,12.27
2022-11-06T12:57:14.148Z,8.63
2022-11-06T13:03:01.242Z,9.32
2022-11-06T13:08:30.160Z,10.05
2022-11-06T13:19:21.262Z,12.43
2022-11-06T13:24:37.831Z,10.18
2022-11-06T13:29:45.922Z,7.90
2022-11-06T13:34:54.116Z,10.95
2022-11-06T13:40:06.844Z,10.63
2022-11-06T13:45:15.798Z,14.05
2022-11-06T13:50:29.903Z,11.38
2022-11-06T13:55:54.731Z,8.43
2022-11-06T14:01:07.468Z,10.25
2022-11-06T14:06:16.447Z,7.63
2022-11-06T14:11:27.488Z,10.77
2022-11-06T14:16:43.421Z,8.82
2022-11-06T14:22:03.904Z,12.13
2022-11-06T14:27:13.977Z,7.63
2022-11-06T14:38:44.736Z,23.27
2022-11-06T14:50:52.680Z,9.00
2022-11-06T14:56:48.707Z,8.82
2022-11-06T15:02:07.147Z,7.45
2022-11-06T15:08:03.151Z,13.82
2022-11-06T15:13:29.004Z,8.27
2022-11-06T15:18:50.293Z,9.82
2022-11-06T15:24:24.118Z,12.80
2022-11-06T15:36:02.702Z,37.42
2022-11-06T15:47:51.413Z,14.45
2022-11-06T15:53:22.026Z,17.38
2022-11-06T16:04:18.887Z,34.50
2022-11-06T16:09:26.056Z,18.33
2022-11-06T16:14:29.725Z,18.85
2022-11-06T16:19:41.665Z,22.33
2022-11-06T16:25:09.894Z,16.15
2022-11-06T16:30:35.074Z,14.13
2022-11-06T16:36:04.633Z,14.98
2022-11-06T16:41:46.644Z,17.73
2022-11-06T16:47:41.547Z,34.03
2022-11-06T16:53:02.557Z,16.25
2022-11-06T17:23:01.758Z,18.15
2022-11-06T17:28:06.007Z,19.83
2022-11-06T17:33:11.297Z,19.23
2022-11-06T17:38:15.654Z,15.77
2022-11-06T17:43:19.284Z,15.27
2022-11-06T17:54:03.722Z,16.00
2022-11-06T17:59:16.469Z,18.95
2022-11-06T18:10:44.030Z,19.02
2022-11-06T18:16:22.627Z,15.35
2022-11-06T18:21:28.563Z,18.23
2022-11-06T18:26:46.636Z,20.77
2022-11-06T18:31:51.313Z,17.92
2022-11-06T18:37:04.904Z,16.27
2022-11-06T18:42:09.223Z,19.77
2022-11-06T18:47:13.015Z,24.50
2022-11-06T18:52:44.450Z,19.33
2022-11-06T18:57:44.132Z,20.80
2022-11-06T19:02:49.039Z,22.00
2022-11-06T19:08:00.017Z,17.75
2022-11-06T19:13:04.350Z,17.52
2022-11-06T19:25:10.929Z,26.50
2022-11-06T19:30:44.627Z,20.55
2022-11-06T19:49:05.604Z,23.23
2022-11-06T20:07:05.570Z,27.95
2022-11-06T20:12:24.731Z,24.30
2022-11-06T20:22:58.642Z,23.88
2022-11-06T20:28:08.937Z,23.85
2022-11-06T20:33:17.826Z,27.35
2022-11-06T20:38:29.041Z,27.70
2022-11-06T20:49:15.959Z,26.70
2022-11-06T20:54:47.530Z,27.10
2022-11-06T21:05:26.868Z,27.77
2022-11-06T21:10:33.502Z,25.70
2022-11-06T21:15:56.470Z,25.92
2022-11-06T21:21:25.375Z,28.23
2022-11-06T21:26:56.742Z,27.35
2022-11-06T21:32:38.482Z,28.20
2022-11-06T21:37:57.644Z,31.50
2022-11-06T21:43:03.203Z,29.15
2022-11-06T21:48:14.850Z,32.95
2022-11-06T21:53:52.720Z,28.17
2022-11-06T21:59:45.106Z,28.58
2022-11-06T22:10:30.341Z,27.55
2022-11-06T22:15:34.636Z,31.60
2022-11-06T22:20:48.804Z,29.40
2022-11-06T22:31:32.913Z,32.17
2022-11-06T22:42:37.771Z,34.30
2022-11-06T22:53:18.074Z,30.27
2022-11-06T22:58:22.201Z,34.05
